sensor_id;sensor_type;location;lat;lon;timestamp;P1;durP1;ratioP1;P2;durP2;ratioP2
67751;SDS011;54551;51.068;5.826;2023-04-24T00:00:03;7.03;;;6.00;;
67751;SDS011;54551;51.068;5.826;2023-04-24T00:02:34;9.07;;;6.60;;
67751;SDS011;54551;51.068;5.826;2023-04-24T00:05:03;8.67;;;6.30;;
67751;SDS011;54551;51.068;5.826;2023-04-24T00:07:30;8.07;;;6.37;;
67751;SDS011;54551;51.068;5.826;2023-04-24T00:09:57;9.97;;;6.63;;
67751;SDS011;54551;51.068;5.826;2023-04-24T00:12:23;7.80;;;6.37;;
67751;SDS011;54551;51.068;5.826;2023-04-24T00:14:50;8.60;;;5.97;;
67751;SDS011;54551;51.068;5.826;2023-04-24T00:17:16;8.80;;;6.80;;
67751;SDS011;54551;51.068;5.826;2023-04-24T00:19:45;7.27;;;6.27;;
67751;SDS011;54551;51.068;5.826;2023-04-24T00:22:12;8.23;;;7.30;;
67751;SDS011;54551;51.068;5.826;2023-04-24T00:24:41;10.33;;;6.70;;
67751;SDS011;54551;51.068;5.826;2023-04-24T00:27:06;10.63;;;6.87;;
67751;SDS011;54551;51.068;5.826;2023-04-24T00:29:33;11.67;;;7.40;;
67751;SDS011;54551;51.068;5.826;2023-04-24T00:31:59;7.87;;;6.90;;
67751;SDS011;54551;51.068;5.826;2023-04-24T00:34:25;8.13;;;7.40;;
67751;SDS011;54551;51.068;5.826;2023-04-24T00:36:51;8.93;;;7.93;;
67751;SDS011;54551;51.068;5.826;2023-04-24T00:39:18;8.97;;;7.90;;
67751;SDS011;54551;51.068;5.826;2023-04-24T00:41:45;10.23;;;8.07;;
67751;SDS011;54551;51.068;5.826;2023-04-24T00:44:12;11.17;;;9.43;;
67751;SDS011;54551;51.068;5.826;2023-04-24T00:46:38;11.00;;;8.17;;
67751;SDS011;54551;51.068;5.826;2023-04-24T00:49:04;11.60;;;9.00;;
67751;SDS011;54551;51.068;5.826;2023-04-24T00:51:31;11.10;;;10.00;;
67751;SDS011;54551;51.068;5.826;2023-04-24T00:54:01;12.67;;;9.90;;
67751;SDS011;54551;51.068;5.826;2023-04-24T00:56:27;11.00;;;9.83;;
67751;SDS011;54551;51.068;5.826;2023-04-24T00:58:54;13.50;;;9.47;;
67751;SDS011;54551;51.068;5.826;2023-04-24T01:01:21;13.77;;;10.03;;
67751;SDS011;54551;51.068;5.826;2023-04-24T01:03:48;12.40;;;9.67;;
67751;SDS011;54551;51.068;5.826;2023-04-24T01:06:16;14.17;;;10.50;;
67751;SDS011;54551;51.068;5.826;2023-04-24T01:08:43;15.37;;;11.13;;
67751;SDS011;54551;51.068;5.826;2023-04-24T01:11:11;15.10;;;10.77;;
67751;SDS011;54551;51.068;5.826;2023-04-24T01:13:37;13.17;;;11.07;;
67751;SDS011;54551;51.068;5.826;2023-04-24T01:16:03;18.83;;;12.17;;
67751;SDS011;54551;51.068;5.826;2023-04-24T01:18:29;16.43;;;12.67;;
67751;SDS011;54551;51.068;5.826;2023-04-24T01:20:57;12.97;;;11.57;;
67751;SDS011;54551;51.068;5.826;2023-04-24T01:23:27;14.70;;;11.60;;
67751;SDS011;54551;51.068;5.826;2023-04-24T01:25:53;15.53;;;11.83;;
67751;SDS011;54551;51.068;5.826;2023-04-24T01:28:19;15.37;;;12.73;;
67751;SDS011;54551;51.068;5.826;2023-04-24T01:30:45;16.80;;;13.03;;
67751;SDS011;54551;51.068;5.826;2023-04-24T01:33:11;15.63;;;12.40;;
67751;SDS011;54551;51.068;5.826;2023-04-24T01:35:38;18.53;;;13.20;;
67751;SDS011;54551;51.068;5.826;2023-04-24T01:38:04;18.20;;;13.20;;
67751;SDS011;54551;51.068;5.826;2023-04-24T01:40:31;18.80;;;13.27;;
67751;SDS011;54551;51.068;5.826;2023-04-24T01:42:57;15.20;;;12.77;;
67751;SDS011;54551;51.068;5.826;2023-04-24T01:45:24;21.93;;;13.77;;
67751;SDS011;54551;51.068;5.826;2023-04-24T01:47:50;17.17;;;13.33;;
67751;SDS011;54551;51.068;5.826;2023-04-24T01:50:17;18.57;;;13.10;;
67751;SDS011;54551;51.068;5.826;2023-04-24T01:52:43;16.70;;;13.40;;
67751;SDS011;54551;51.068;5.826;2023-04-24T01:55:09;16.33;;;12.83;;
67751;SDS011;54551;51.068;5.826;2023-04-24T01:57:36;17.73;;;13.13;;
67751;SDS011;54551;51.068;5.826;2023-04-24T02:00:03;16.50;;;12.57;;
67751;SDS011;54551;51.068;5.826;2023-04-24T02:02:41;17.13;;;12.67;;
67751;SDS011;54551;51.068;5.826;2023-04-24T02:05:08;19.87;;;13.47;;
67751;SDS011;54551;51.068;5.826;2023-04-24T02:07:36;19.00;;;13.17;;
67751;SDS011;54551;51.068;5.826;2023-04-24T02:10:02;18.67;;;12.70;;
67751;SDS011;54551;51.068;5.826;2023-04-24T02:12:29;16.90;;;13.10;;
67751;SDS011;54551;51.068;5.826;2023-04-24T02:14:55;19.13;;;12.87;;
67751;SDS011;54551;51.068;5.826;2023-04-24T02:17:21;18.97;;;13.60;;
67751;SDS011;54551;51.068;5.826;2023-04-24T02:19:47;20.13;;;13.70;;
67751;SDS011;54551;51.068;5.826;2023-04-24T02:22:13;17.50;;;13.10;;
67751;SDS011;54551;51.068;5.826;2023-04-24T02:24:39;18.40;;;13.40;;
67751;SDS011;54551;51.068;5.826;2023-04-24T02:27:05;16.63;;;12.60;;
67751;SDS011;54551;51.068;5.826;2023-04-24T02:29:32;14.90;;;12.33;;
67751;SDS011;54551;51.068;5.826;2023-04-24T02:31:58;15.30;;;12.30;;
67751;SDS011;54551;51.068;5.826;2023-04-24T02:34:24;13.00;;;11.30;;
67751;SDS011;54551;51.068;5.826;2023-04-24T02:36:50;17.33;;;12.97;;
67751;SDS011;54551;51.068;5.826;2023-04-24T02:39:16;14.90;;;12.33;;
67751;SDS011;54551;51.068;5.826;2023-04-24T02:41:43;17.60;;;12.73;;
67751;SDS011;54551;51.068;5.826;2023-04-24T02:44:09;13.77;;;11.77;;
67751;SDS011;54551;51.068;5.826;2023-04-24T02:46:35;15.37;;;11.80;;
67751;SDS011;54551;51.068;5.826;2023-04-24T02:49:01;12.73;;;11.33;;
67751;SDS011;54551;51.068;5.826;2023-04-24T02:51:28;19.03;;;12.63;;
67751;SDS011;54551;51.068;5.826;2023-04-24T02:53:55;14.23;;;12.27;;
67751;SDS011;54551;51.068;5.826;2023-04-24T02:56:21;17.83;;;12.67;;
67751;SDS011;54551;51.068;5.826;2023-04-24T02:58:46;14.33;;;12.10;;
67751;SDS011;54551;51.068;5.826;2023-04-24T03:01:12;17.47;;;12.63;;
67751;SDS011;54551;51.068;5.826;2023-04-24T03:03:39;15.50;;;12.53;;
67751;SDS011;54551;51.068;5.826;2023-04-24T03:06:05;17.00;;;12.83;;
67751;SDS011;54551;51.068;5.826;2023-04-24T03:08:33;14.60;;;11.67;;
67751;SDS011;54551;51.068;5.826;2023-04-24T03:10:59;16.37;;;12.03;;
67751;SDS011;54551;51.068;5.826;2023-04-24T03:13:25;17.67;;;12.07;;
67751;SDS011;54551;51.068;5.826;2023-04-24T03:15:51;13.37;;;11.10;;
67751;SDS011;54551;51.068;5.826;2023-04-24T03:18:18;13.87;;;11.30;;
67751;SDS011;54551;51.068;5.826;2023-04-24T03:20:45;12.07;;;10.60;;
67751;SDS011;54551;51.068;5.826;2023-04-24T03:23:12;12.83;;;10.27;;
67751;SDS011;54551;51.068;5.826;2023-04-24T03:25:38;13.73;;;11.33;;
67751;SDS011;54551;51.068;5.826;2023-04-24T03:28:05;13.90;;;10.87;;
67751;SDS011;54551;51.068;5.826;2023-04-24T03:30:43;11.33;;;10.10;;
67751;SDS011;54551;51.068;5.826;2023-04-24T03:33:10;13.77;;;10.30;;
67751;SDS011;54551;51.068;5.826;2023-04-24T03:35:42;11.33;;;9.90;;
67751;SDS011;54551;51.068;5.826;2023-04-24T03:38:10;11.80;;;9.80;;
67751;SDS011;54551;51.068;5.826;2023-04-24T03:40:53;13.67;;;10.43;;
67751;SDS011;54551;51.068;5.826;2023-04-24T03:43:48;10.90;;;9.80;;
67751;SDS011;54551;51.068;5.826;2023-04-24T03:46:15;12.80;;;11.27;;
67751;SDS011;54551;51.068;5.826;2023-04-24T03:48:46;11.27;;;10.17;;
67751;SDS011;54551;51.068;5.826;2023-04-24T03:51:15;11.50;;;10.30;;
67751;SDS011;54551;51.068;5.826;2023-04-24T03:53:44;11.47;;;10.33;;
67751;SDS011;54551;51.068;5.826;2023-04-24T03:56:13;12.13;;;10.80;;
67751;SDS011;54551;51.068;5.826;2023-04-24T03:58:40;11.77;;;10.47;;
67751;SDS011;54551;51.068;5.826;2023-04-24T04:01:06;13.83;;;11.53;;
67751;SDS011;54551;51.068;5.826;2023-04-24T04:03:46;14.50;;;11.63;;
67751;SDS011;54551;51.068;5.826;2023-04-24T04:06:15;12.97;;;11.53;;
67751;SDS011;54551;51.068;5.826;2023-04-24T04:08:41;17.07;;;12.13;;
67751;SDS011;54551;51.068;5.826;2023-04-24T04:11:07;14.80;;;10.87;;
67751;SDS011;54551;51.068;5.826;2023-04-24T04:13:33;14.80;;;11.23;;
67751;SDS011;54551;51.068;5.826;2023-04-24T04:16:00;15.80;;;12.00;;
67751;SDS011;54551;51.068;5.826;2023-04-24T04:18:26;13.93;;;11.73;;
67751;SDS011;54551;51.068;5.826;2023-04-24T04:20:52;16.30;;;12.13;;
67751;SDS011;54551;51.068;5.826;2023-04-24T04:23:18;13.33;;;12.03;;
67751;SDS011;54551;51.068;5.826;2023-04-24T04:26:08;14.43;;;12.53;;
67751;SDS011;54551;51.068;5.826;2023-04-24T04:28:56;18.93;;;13.63;;
67751;SDS011;54551;51.068;5.826;2023-04-24T04:31:22;14.37;;;12.17;;
67751;SDS011;54551;51.068;5.826;2023-04-24T04:33:49;13.83;;;12.20;;
67751;SDS011;54551;51.068;5.826;2023-04-24T04:36:15;13.90;;;12.50;;
67751;SDS011;54551;51.068;5.826;2023-04-24T04:38:48;15.63;;;11.60;;
67751;SDS011;54551;51.068;5.826;2023-04-24T04:41:31;17.17;;;12.40;;
67751;SDS011;54551;51.068;5.826;2023-04-24T04:43:57;12.80;;;11.03;;
67751;SDS011;54551;51.068;5.826;2023-04-24T04:46:24;15.73;;;11.70;;
67751;SDS011;54551;51.068;5.826;2023-04-24T04:49:07;14.23;;;11.93;;
67751;SDS011;54551;51.068;5.826;2023-04-24T04:51:34;13.17;;;10.87;;
67751;SDS011;54551;51.068;5.826;2023-04-24T04:54:01;12.93;;;11.00;;
67751;SDS011;54551;51.068;5.826;2023-04-24T04:56:27;13.23;;;11.17;;
67751;SDS011;54551;51.068;5.826;2023-04-24T04:58:55;12.10;;;10.70;;
67751;SDS011;54551;51.068;5.826;2023-04-24T05:01:21;13.27;;;11.57;;
67751;SDS011;54551;51.068;5.826;2023-04-24T05:03:49;14.67;;;11.33;;
67751;SDS011;54551;51.068;5.826;2023-04-24T05:06:16;11.93;;;10.73;;
67751;SDS011;54551;51.068;5.826;2023-04-24T05:08:44;13.00;;;10.67;;
67751;SDS011;54551;51.068;5.826;2023-04-24T05:11:20;12.93;;;11.20;;
67751;SDS011;54551;51.068;5.826;2023-04-24T05:13:46;13.77;;;11.47;;
67751;SDS011;54551;51.068;5.826;2023-04-24T05:16:18;11.47;;;10.37;;
67751;SDS011;54551;51.068;5.826;2023-04-24T05:18:45;12.73;;;10.70;;
67751;SDS011;54551;51.068;5.826;2023-04-24T05:21:14;11.43;;;10.33;;
67751;SDS011;54551;51.068;5.826;2023-04-24T05:23:43;11.60;;;10.43;;
67751;SDS011;54551;51.068;5.826;2023-04-24T05:26:09;15.30;;;10.83;;
67751;SDS011;54551;51.068;5.826;2023-04-24T05:28:35;12.80;;;10.40;;
67751;SDS011;54551;51.068;5.826;2023-04-24T05:31:06;11.10;;;10.00;;
67751;SDS011;54551;51.068;5.826;2023-04-24T05:33:33;12.77;;;9.70;;
67751;SDS011;54551;51.068;5.826;2023-04-24T05:35:59;11.20;;;10.13;;
67751;SDS011;54551;51.068;5.826;2023-04-24T05:38:26;11.13;;;10.03;;
67751;SDS011;54551;51.068;5.826;2023-04-24T05:40:52;13.17;;;9.70;;
67751;SDS011;54551;51.068;5.826;2023-04-24T05:43:18;11.97;;;10.77;;
67751;SDS011;54551;51.068;5.826;2023-04-24T05:45:44;11.50;;;10.40;;
67751;SDS011;54551;51.068;5.826;2023-04-24T05:48:10;10.30;;;9.27;;
67751;SDS011;54551;51.068;5.826;2023-04-24T05:50:35;10.03;;;8.77;;
67751;SDS011;54551;51.068;5.826;2023-04-24T05:53:01;8.63;;;7.73;;
67751;SDS011;54551;51.068;5.826;2023-04-24T05:55:32;8.83;;;7.93;;
67751;SDS011;54551;51.068;5.826;2023-04-24T05:57:58;9.17;;;8.27;;
67751;SDS011;54551;51.068;5.826;2023-04-24T06:00:25;8.17;;;7.40;;
67751;SDS011;54551;51.068;5.826;2023-04-24T06:02:59;9.30;;;7.80;;
67751;SDS011;54551;51.068;5.826;2023-04-24T06:05:26;7.50;;;6.10;;
67751;SDS011;54551;51.068;5.826;2023-04-24T06:07:52;5.60;;;5.00;;
67751;SDS011;54551;51.068;5.826;2023-04-24T06:10:20;6.07;;;4.77;;
67751;SDS011;54551;51.068;5.826;2023-04-24T06:12:46;5.50;;;5.00;;
67751;SDS011;54551;51.068;5.826;2023-04-24T06:15:15;4.50;;;4.07;;
67751;SDS011;54551;51.068;5.826;2023-04-24T06:17:55;4.83;;;3.70;;
67751;SDS011;54551;51.068;5.826;2023-04-24T06:20:21;5.37;;;3.90;;
67751;SDS011;54551;51.068;5.826;2023-04-24T06:22:47;4.50;;;4.10;;
67751;SDS011;54551;51.068;5.826;2023-04-24T06:25:13;4.10;;;3.73;;
67751;SDS011;54551;51.068;5.826;2023-04-24T06:27:39;5.43;;;3.63;;
67751;SDS011;54551;51.068;5.826;2023-04-24T06:30:07;5.87;;;4.83;;
67751;SDS011;54551;51.068;5.826;2023-04-24T06:32:33;4.27;;;3.93;;
67751;SDS011;54551;51.068;5.826;2023-04-24T06:34:59;5.10;;;4.60;;
67751;SDS011;54551;51.068;5.826;2023-04-24T06:37:26;5.60;;;5.00;;
67751;SDS011;54551;51.068;5.826;2023-04-24T06:39:52;5.40;;;4.60;;
67751;SDS011;54551;51.068;5.826;2023-04-24T06:42:18;5.60;;;5.10;;
67751;SDS011;54551;51.068;5.826;2023-04-24T06:44:48;6.87;;;4.30;;
67751;SDS011;54551;51.068;5.826;2023-04-24T06:47:14;4.63;;;4.23;;
67751;SDS011;54551;51.068;5.826;2023-04-24T06:49:40;3.30;;;2.93;;
67751;SDS011;54551;51.068;5.826;2023-04-24T06:52:06;4.60;;;3.27;;
67751;SDS011;54551;51.068;5.826;2023-04-24T06:54:32;3.20;;;2.90;;
67751;SDS011;54551;51.068;5.826;2023-04-24T06:56:59;5.87;;;3.97;;
67751;SDS011;54551;51.068;5.826;2023-04-24T06:59:29;5.53;;;4.90;;
67751;SDS011;54551;51.068;5.826;2023-04-24T07:01:56;9.80;;;7.03;;
67751;SDS011;54551;51.068;5.826;2023-04-24T07:04:21;8.53;;;7.60;;
67751;SDS011;54551;51.068;5.826;2023-04-24T07:06:48;10.43;;;7.77;;
67751;SDS011;54551;51.068;5.826;2023-04-24T07:09:17;9.90;;;8.83;;
67751;SDS011;54551;51.068;5.826;2023-04-24T07:11:44;10.27;;;9.20;;
67751;SDS011;54551;51.068;5.826;2023-04-24T07:14:10;9.60;;;8.63;;
67751;SDS011;54551;51.068;5.826;2023-04-24T07:16:37;8.50;;;7.60;;
67751;SDS011;54551;51.068;5.826;2023-04-24T07:19:03;10.77;;;7.93;;
67751;SDS011;54551;51.068;5.826;2023-04-24T07:21:29;8.67;;;7.30;;
67751;SDS011;54551;51.068;5.826;2023-04-24T07:23:57;9.40;;;7.20;;
67751;SDS011;54551;51.068;5.826;2023-04-24T07:26:23;9.67;;;6.90;;
67751;SDS011;54551;51.068;5.826;2023-04-24T07:28:50;8.93;;;6.20;;
67751;SDS011;54551;51.068;5.826;2023-04-24T07:31:16;8.90;;;6.70;;
67751;SDS011;54551;51.068;5.826;2023-04-24T07:33:42;6.07;;;5.43;;
67751;SDS011;54551;51.068;5.826;2023-04-24T07:36:07;7.87;;;5.90;;
67751;SDS011;54551;51.068;5.826;2023-04-24T07:38:34;6.60;;;5.47;;
67751;SDS011;54551;51.068;5.826;2023-04-24T07:40:59;9.43;;;6.20;;
67751;SDS011;54551;51.068;5.826;2023-04-24T07:43:25;7.83;;;6.27;;
67751;SDS011;54551;51.068;5.826;2023-04-24T07:45:51;7.73;;;7.00;;
67751;SDS011;54551;51.068;5.826;2023-04-24T07:48:18;9.30;;;7.13;;
67751;SDS011;54551;51.068;5.826;2023-04-24T07:50:44;9.23;;;7.13;;
67751;SDS011;54551;51.068;5.826;2023-04-24T07:53:10;10.97;;;7.97;;
67751;SDS011;54551;51.068;5.826;2023-04-24T07:55:37;10.77;;;7.90;;
67751;SDS011;54551;51.068;5.826;2023-04-24T07:58:03;9.27;;;8.20;;
67751;SDS011;54551;51.068;5.826;2023-04-24T08:00:29;9.67;;;8.67;;
67751;SDS011;54551;51.068;5.826;2023-04-24T08:02:55;11.57;;;8.90;;
67751;SDS011;54551;51.068;5.826;2023-04-24T08:05:21;10.10;;;8.83;;
67751;SDS011;54551;51.068;5.826;2023-04-24T08:07:47;12.23;;;8.73;;
67751;SDS011;54551;51.068;5.826;2023-04-24T08:10:15;10.90;;;8.40;;
67751;SDS011;54551;51.068;5.826;2023-04-24T08:12:41;11.63;;;8.80;;
67751;SDS011;54551;51.068;5.826;2023-04-24T08:15:07;13.03;;;9.30;;
67751;SDS011;54551;51.068;5.826;2023-04-24T08:17:34;12.23;;;8.83;;
67751;SDS011;54551;51.068;5.826;2023-04-24T08:20:01;10.00;;;8.27;;
67751;SDS011;54551;51.068;5.826;2023-04-24T08:22:30;11.47;;;9.00;;
67751;SDS011;54551;51.068;5.826;2023-04-24T08:24:56;10.07;;;8.37;;
67751;SDS011;54551;51.068;5.826;2023-04-24T08:27:25;9.80;;;8.47;;
67751;SDS011;54551;51.068;5.826;2023-04-24T08:29:54;12.57;;;8.30;;
67751;SDS011;54551;51.068;5.826;2023-04-24T08:32:22;12.17;;;8.17;;
67751;SDS011;54551;51.068;5.826;2023-04-24T08:34:48;11.67;;;9.23;;
67751;SDS011;54551;51.068;5.826;2023-04-24T08:37:14;12.27;;;8.53;;
67751;SDS011;54551;51.068;5.826;2023-04-24T08:39:40;12.97;;;8.37;;
67751;SDS011;54551;51.068;5.826;2023-04-24T08:42:06;11.43;;;8.73;;
67751;SDS011;54551;51.068;5.826;2023-04-24T08:44:33;9.83;;;8.83;;
67751;SDS011;54551;51.068;5.826;2023-04-24T08:47:04;10.10;;;8.00;;
67751;SDS011;54551;51.068;5.826;2023-04-24T08:49:30;9.83;;;7.90;;
67751;SDS011;54551;51.068;5.826;2023-04-24T08:51:56;11.90;;;7.47;;
67751;SDS011;54551;51.068;5.826;2023-04-24T08:54:22;9.97;;;6.67;;
67751;SDS011;54551;51.068;5.826;2023-04-24T08:56:49;16.17;;;7.40;;
67751;SDS011;54551;51.068;5.826;2023-04-24T08:59:18;11.53;;;7.90;;
67751;SDS011;54551;51.068;5.826;2023-04-24T09:01:46;15.67;;;7.50;;
67751;SDS011;54551;51.068;5.826;2023-04-24T09:04:15;12.53;;;6.97;;
67751;SDS011;54551;51.068;5.826;2023-04-24T09:06:43;11.30;;;6.53;;
67751;SDS011;54551;51.068;5.826;2023-04-24T09:09:09;9.00;;;5.67;;
67751;SDS011;54551;51.068;5.826;2023-04-24T09:11:37;10.17;;;6.17;;
67751;SDS011;54551;51.068;5.826;2023-04-24T09:14:02;11.27;;;6.33;;
67751;SDS011;54551;51.068;5.826;2023-04-24T09:16:29;11.73;;;6.37;;
67751;SDS011;54551;51.068;5.826;2023-04-24T09:18:55;8.97;;;6.10;;
67751;SDS011;54551;51.068;5.826;2023-04-24T09:21:21;15.00;;;6.57;;
67751;SDS011;54551;51.068;5.826;2023-04-24T09:24:01;7.87;;;5.93;;
67751;SDS011;54551;51.068;5.826;2023-04-24T09:26:29;9.63;;;6.03;;
67751;SDS011;54551;51.068;5.826;2023-04-24T09:28:59;10.63;;;6.23;;
67751;SDS011;54551;51.068;5.826;2023-04-24T09:31:26;11.90;;;6.27;;
67751;SDS011;54551;51.068;5.826;2023-04-24T09:39:20;11.93;;;5.83;;
67751;SDS011;54551;51.068;5.826;2023-04-24T09:44:16;9.93;;;5.03;;
67751;SDS011;54551;51.068;5.826;2023-04-24T09:46:53;12.83;;;5.67;;
67751;SDS011;54551;51.068;5.826;2023-04-24T09:49:24;9.47;;;4.90;;
67751;SDS011;54551;51.068;5.826;2023-04-24T09:52:04;8.93;;;4.90;;
67751;SDS011;54551;51.068;5.826;2023-04-24T09:54:31;10.17;;;4.50;;
67751;SDS011;54551;51.068;5.826;2023-04-24T09:56:58;11.10;;;4.40;;
67751;SDS011;54551;51.068;5.826;2023-04-24T09:59:25;10.60;;;4.37;;
67751;SDS011;54551;51.068;5.826;2023-04-24T10:01:51;8.53;;;4.77;;
67751;SDS011;54551;51.068;5.826;2023-04-24T10:06:48;8.57;;;3.57;;
67751;SDS011;54551;51.068;5.826;2023-04-24T10:09:15;6.43;;;3.23;;
67751;SDS011;54551;51.068;5.826;2023-04-24T10:11:43;7.50;;;3.07;;
67751;SDS011;54551;51.068;5.826;2023-04-24T10:14:23;6.57;;;3.00;;
67751;SDS011;54551;51.068;5.826;2023-04-24T10:16:52;9.43;;;3.43;;
67751;SDS011;54551;51.068;5.826;2023-04-24T10:19:19;9.07;;;3.07;;
67751;SDS011;54551;51.068;5.826;2023-04-24T10:21:45;11.77;;;3.77;;
67751;SDS011;54551;51.068;5.826;2023-04-24T10:24:16;8.87;;;3.20;;
67751;SDS011;54551;51.068;5.826;2023-04-24T10:26:43;12.70;;;4.07;;
67751;SDS011;54551;51.068;5.826;2023-04-24T10:29:11;8.77;;;3.47;;
67751;SDS011;54551;51.068;5.826;2023-04-24T10:31:38;10.00;;;3.57;;
67751;SDS011;54551;51.068;5.826;2023-04-24T10:34:05;8.33;;;3.53;;
67751;SDS011;54551;51.068;5.826;2023-04-24T10:36:32;9.97;;;3.97;;
67751;SDS011;54551;51.068;5.826;2023-04-24T10:39:03;9.73;;;3.73;;
67751;SDS011;54551;51.068;5.826;2023-04-24T10:41:36;10.80;;;3.93;;
67751;SDS011;54551;51.068;5.826;2023-04-24T10:44:10;9.53;;;4.00;;
67751;SDS011;54551;51.068;5.826;2023-04-24T10:46:38;13.33;;;4.73;;
67751;SDS011;54551;51.068;5.826;2023-04-24T10:49:05;11.83;;;5.13;;
67751;SDS011;54551;51.068;5.826;2023-04-24T10:51:50;13.23;;;5.47;;
67751;SDS011;54551;51.068;5.826;2023-04-24T10:54:21;10.70;;;4.87;;
67751;SDS011;54551;51.068;5.826;2023-04-24T10:59:48;14.27;;;5.30;;
67751;SDS011;54551;51.068;5.826;2023-04-24T11:02:16;9.93;;;5.17;;
67751;SDS011;54551;51.068;5.826;2023-04-24T11:04:43;11.17;;;5.37;;
67751;SDS011;54551;51.068;5.826;2023-04-24T11:07:10;12.07;;;5.03;;
67751;SDS011;54551;51.068;5.826;2023-04-24T11:09:37;11.20;;;5.03;;
67751;SDS011;54551;51.068;5.826;2023-04-24T11:12:09;8.67;;;4.50;;
67751;SDS011;54551;51.068;5.826;2023-04-24T11:17:33;9.43;;;4.70;;
67751;SDS011;54551;51.068;5.826;2023-04-24T11:20:06;11.93;;;5.40;;
67751;SDS011;54551;51.068;5.826;2023-04-24T11:22:35;9.47;;;4.53;;
67751;SDS011;54551;51.068;5.826;2023-04-24T11:25:03;12.03;;;5.03;;
67751;SDS011;54551;51.068;5.826;2023-04-24T11:27:31;12.17;;;4.30;;
67751;SDS011;54551;51.068;5.826;2023-04-24T11:30:08;11.37;;;4.17;;
67751;SDS011;54551;51.068;5.826;2023-04-24T11:32:36;13.73;;;4.87;;
67751;SDS011;54551;51.068;5.826;2023-04-24T11:35:14;11.03;;;3.63;;
67751;SDS011;54551;51.068;5.826;2023-04-24T11:37:46;10.87;;;3.77;;
67751;SDS011;54551;51.068;5.826;2023-04-24T11:40:15;8.57;;;3.00;;
67751;SDS011;54551;51.068;5.826;2023-04-24T11:42:49;7.30;;;3.47;;
67751;SDS011;54551;51.068;5.826;2023-04-24T11:45:22;9.67;;;3.23;;
67751;SDS011;54551;51.068;5.826;2023-04-24T11:47:49;6.00;;;2.90;;
67751;SDS011;54551;51.068;5.826;2023-04-24T11:50:16;10.70;;;3.30;;
67751;SDS011;54551;51.068;5.826;2023-04-24T11:52:44;9.43;;;3.17;;
67751;SDS011;54551;51.068;5.826;2023-04-24T11:57:44;7.37;;;3.20;;
67751;SDS011;54551;51.068;5.826;2023-04-24T12:00:15;10.00;;;3.43;;
67751;SDS011;54551;51.068;5.826;2023-04-24T12:02:42;7.30;;;3.30;;
67751;SDS011;54551;51.068;5.826;2023-04-24T12:05:08;8.67;;;3.50;;
67751;SDS011;54551;51.068;5.826;2023-04-24T12:07:41;4.83;;;3.47;;
67751;SDS011;54551;51.068;5.826;2023-04-24T12:10:08;10.30;;;4.03;;
67751;SDS011;54551;51.068;5.826;2023-04-24T12:12:34;7.70;;;3.20;;
67751;SDS011;54551;51.068;5.826;2023-04-24T12:15:00;8.07;;;3.23;;
67751;SDS011;54551;51.068;5.826;2023-04-24T12:17:31;6.63;;;3.10;;
67751;SDS011;54551;51.068;5.826;2023-04-24T12:19:58;6.53;;;2.90;;
67751;SDS011;54551;51.068;5.826;2023-04-24T12:22:25;5.77;;;2.90;;
67751;SDS011;54551;51.068;5.826;2023-04-24T12:24:58;8.97;;;3.10;;
67751;SDS011;54551;51.068;5.826;2023-04-24T12:27:28;7.57;;;3.07;;
67751;SDS011;54551;51.068;5.826;2023-04-24T12:29:59;8.73;;;3.20;;
67751;SDS011;54551;51.068;5.826;2023-04-24T12:32:26;6.07;;;2.97;;
67751;SDS011;54551;51.068;5.826;2023-04-24T12:34:53;7.03;;;3.37;;
67751;SDS011;54551;51.068;5.826;2023-04-24T12:37:20;5.93;;;2.70;;
67751;SDS011;54551;51.068;5.826;2023-04-24T12:40:01;6.80;;;2.77;;
67751;SDS011;54551;51.068;5.826;2023-04-24T12:45:10;6.87;;;2.90;;
67751;SDS011;54551;51.068;5.826;2023-04-24T12:47:40;5.23;;;2.97;;
67751;SDS011;54551;51.068;5.826;2023-04-24T12:50:13;7.60;;;3.03;;
67751;SDS011;54551;51.068;5.826;2023-04-24T12:52:40;6.37;;;2.73;;
67751;SDS011;54551;51.068;5.826;2023-04-24T12:55:07;5.90;;;3.30;;
67751;SDS011;54551;51.068;5.826;2023-04-24T12:57:34;8.93;;;3.70;;
67751;SDS011;54551;51.068;5.826;2023-04-24T13:00:01;6.57;;;2.97;;
67751;SDS011;54551;51.068;5.826;2023-04-24T13:02:29;6.00;;;3.10;;
67751;SDS011;54551;51.068;5.826;2023-04-24T13:04:56;5.07;;;2.70;;
67751;SDS011;54551;51.068;5.826;2023-04-24T13:07:23;4.03;;;3.00;;
67751;SDS011;54551;51.068;5.826;2023-04-24T13:09:50;9.13;;;3.20;;
67751;SDS011;54551;51.068;5.826;2023-04-24T13:12:16;6.80;;;2.87;;
67751;SDS011;54551;51.068;5.826;2023-04-24T13:14:43;6.93;;;3.30;;
67751;SDS011;54551;51.068;5.826;2023-04-24T13:17:08;5.53;;;3.10;;
67751;SDS011;54551;51.068;5.826;2023-04-24T13:19:39;6.53;;;3.07;;
67751;SDS011;54551;51.068;5.826;2023-04-24T13:22:09;6.20;;;2.87;;
67751;SDS011;54551;51.068;5.826;2023-04-24T13:24:36;5.97;;;3.13;;
67751;SDS011;54551;51.068;5.826;2023-04-24T13:27:03;5.63;;;3.17;;
67751;SDS011;54551;51.068;5.826;2023-04-24T13:29:29;6.00;;;2.83;;
67751;SDS011;54551;51.068;5.826;2023-04-24T13:31:55;7.83;;;3.07;;
67751;SDS011;54551;51.068;5.826;2023-04-24T13:34:22;7.20;;;3.40;;
67751;SDS011;54551;51.068;5.826;2023-04-24T13:36:49;8.33;;;3.50;;
67751;SDS011;54551;51.068;5.826;2023-04-24T13:39:16;5.73;;;2.57;;
67751;SDS011;54551;51.068;5.826;2023-04-24T13:41:42;5.37;;;3.07;;
67751;SDS011;54551;51.068;5.826;2023-04-24T13:44:08;5.33;;;3.37;;
67751;SDS011;54551;51.068;5.826;2023-04-24T13:46:34;10.27;;;3.60;;
67751;SDS011;54551;51.068;5.826;2023-04-24T13:49:01;3.83;;;2.30;;
67751;SDS011;54551;51.068;5.826;2023-04-24T13:51:29;5.00;;;2.60;;
67751;SDS011;54551;51.068;5.826;2023-04-24T13:53:55;6.73;;;2.80;;
67751;SDS011;54551;51.068;5.826;2023-04-24T13:56:22;4.10;;;2.80;;
67751;SDS011;54551;51.068;5.826;2023-04-24T13:58:48;6.13;;;3.10;;
67751;SDS011;54551;51.068;5.826;2023-04-24T14:01:14;5.70;;;2.07;;
67751;SDS011;54551;51.068;5.826;2023-04-24T14:03:41;3.87;;;2.23;;
67751;SDS011;54551;51.068;5.826;2023-04-24T14:06:08;3.90;;;2.00;;
67751;SDS011;54551;51.068;5.826;2023-04-24T14:08:34;5.37;;;2.17;;
67751;SDS011;54551;51.068;5.826;2023-04-24T14:11:00;5.07;;;2.10;;
67751;SDS011;54551;51.068;5.826;2023-04-24T14:13:26;5.80;;;2.30;;
67751;SDS011;54551;51.068;5.826;2023-04-24T14:15:53;4.20;;;2.27;;
67751;SDS011;54551;51.068;5.826;2023-04-24T14:18:19;6.97;;;2.17;;
67751;SDS011;54551;51.068;5.826;2023-04-24T14:20:45;4.70;;;2.30;;
67751;SDS011;54551;51.068;5.826;2023-04-24T14:23:11;4.30;;;2.50;;
67751;SDS011;54551;51.068;5.826;2023-04-24T14:25:37;4.53;;;2.40;;
67751;SDS011;54551;51.068;5.826;2023-04-24T14:28:03;4.33;;;2.03;;
67751;SDS011;54551;51.068;5.826;2023-04-24T14:30:29;5.03;;;2.53;;
67751;SDS011;54551;51.068;5.826;2023-04-24T14:32:55;3.53;;;2.53;;
67751;SDS011;54551;51.068;5.826;2023-04-24T14:35:21;4.70;;;2.73;;
67751;SDS011;54551;51.068;5.826;2023-04-24T14:37:47;7.03;;;2.67;;
67751;SDS011;54551;51.068;5.826;2023-04-24T14:40:14;4.17;;;2.40;;
67751;SDS011;54551;51.068;5.826;2023-04-24T14:42:40;6.20;;;2.50;;
67751;SDS011;54551;51.068;5.826;2023-04-24T14:45:06;5.03;;;2.70;;
67751;SDS011;54551;51.068;5.826;2023-04-24T14:47:33;5.67;;;2.70;;
67751;SDS011;54551;51.068;5.826;2023-04-24T14:49:59;3.90;;;2.40;;
67751;SDS011;54551;51.068;5.826;2023-04-24T14:52:25;3.67;;;2.57;;
67751;SDS011;54551;51.068;5.826;2023-04-24T14:54:51;4.57;;;2.53;;
67751;SDS011;54551;51.068;5.826;2023-04-24T14:57:17;6.40;;;2.63;;
67751;SDS011;54551;51.068;5.826;2023-04-24T14:59:43;4.93;;;2.60;;